Terminal Aerodrome Forecast
Issued by NWS Wakefield, VA

Home | Current Version | Previous Version | Text Only | Print | Product List | Glossary On
Versions: 1 2 3 4 5 6 7 8 9 10 11 12 13 14 15 16 17 18 19 20 21
000
FTUS41 KAKQ 280900 AAA
TAFECG
TAF AMD
KECG 280927Z 2809/2906 31009KT P6SM SKC
     FM281400 33010G18KT P6SM FEW050
     FM282300 31004KT P6SM SCT200=

USA.gov is the U.S. government's official web portal to all federal, state and local government web resources and services.